Time;durP1;ratioP1;P1;durP2;ratioP2;P2;SDS_P1;SDS_P2;PMS_P1;PMS_P2;Temp;Humidity;BMP_temperature;BMP_pressure;BME280_temperature;BME280_humidity;BME280_pressure;Samples;Min_cycle;Max_cycle;Signal;HPM_P1;HPM_P2
2021/06/07 00:02:14;;;;;;;4.40;4.10;;;13.20;99.90;;;;;;5080103;28;20344;-65
2021/06/07 00:04:42;;;;;;;5.73;4.50;;;13.10;99.90;;;;;;5077994;28;20429;-64
2021/06/07 00:07:12;;;;;;;6.33;4.70;;;13.10;99.90;;;;;;5079480;28;20195;-65
2021/06/07 00:09:43;;;;;;;5.30;4.80;;;13.10;99.90;;;;;;5075714;28;20191;-65
2021/06/07 00:12:14;;;;;;;4.83;4.53;;;13.10;99.90;;;;;;5074081;28;20847;-65
2021/06/07 00:14:43;;;;;;;5.20;4.60;;;13.00;99.90;;;;;;5072354;28;20179;-65
2021/06/07 00:17:11;;;;;;;5.10;4.60;;;13.00;99.90;;;;;;5079290;28;20198;-65
2021/06/07 00:19:42;;;;;;;6.40;4.73;;;12.90;99.90;;;;;;5077450;28;20234;-65
2021/06/07 00:22:11;;;;;;;4.87;4.57;;;12.90;99.90;;;;;;5055931;28;21483;-65
2021/06/07 00:24:39;;;;;;;5.03;4.57;;;12.90;99.90;;;;;;5081055;28;20200;-65
2021/06/07 00:27:08;;;;;;;4.97;4.60;;;12.90;99.90;;;;;;5077615;28;20229;-65
2021/06/07 00:29:37;;;;;;;5.57;4.83;;;12.90;99.90;;;;;;5076025;28;20183;-64
2021/06/07 00:32:06;;;;;;;5.30;4.80;;;12.80;99.90;;;;;;5081090;28;20440;-65
2021/06/07 00:34:34;;;;;;;5.73;5.13;;;12.70;99.90;;;;;;5079481;28;20207;-65
2021/06/07 00:37:03;;;;;;;5.50;5.00;;;12.70;99.90;;;;;;5081472;28;20395;-64
2021/06/07 00:39:32;;;;;;;5.70;5.10;;;12.60;99.90;;;;;;5075766;28;20190;-65
2021/06/07 00:41:59;;;;;;;5.80;5.27;;;12.60;99.90;;;;;;5079788;28;20220;-65
2021/06/07 00:44:28;;;;;;;5.83;5.33;;;12.50;99.90;;;;;;5072736;28;20179;-65
2021/06/07 00:46:55;;;;;;;5.70;4.93;;;12.50;99.90;;;;;;5087526;28;20332;-65
2021/06/07 00:49:24;;;;;;;5.30;4.90;;;12.50;99.90;;;;;;5083932;28;20190;-65
2021/06/07 00:51:54;;;;;;;5.47;4.97;;;12.50;99.90;;;;;;5084259;28;20184;-64
2021/06/07 00:54:22;;;;;;;5.93;4.97;;;12.50;99.90;;;;;;5079476;28;20257;-65
2021/06/07 00:56:51;;;;;;;5.57;5.07;;;12.40;99.90;;;;;;5077198;28;20247;-64
2021/06/07 00:59:19;;;;;;;6.13;5.20;;;12.40;99.90;;;;;;5066160;28;20183;-64
2021/06/07 01:01:47;;;;;;;5.13;4.80;;;12.40;99.90;;;;;;5082141;28;20510;-64
2021/06/07 01:04:15;;;;;;;5.80;5.40;;;12.30;99.90;;;;;;5079622;28;20229;-64
2021/06/07 01:07:09;;;;;;;6.23;5.70;;;12.30;99.90;;;;;;5081474;28;20208;-64
2021/06/07 01:09:36;;;;;;;5.70;5.20;;;12.20;99.90;;;;;;5071908;28;20218;-65
2021/06/07 01:12:07;;;;;;;5.40;5.00;;;12.20;99.90;;;;;;5081219;28;20200;-65
2021/06/07 01:14:53;;;;;;;6.07;5.40;;;12.10;99.90;;;;;;5082121;28;20187;-64
2021/06/07 01:17:25;;;;;;;6.37;5.50;;;12.10;99.90;;;;;;5080935;28;20226;-65
2021/06/07 01:19:53;;;;;;;6.73;5.47;;;12.00;99.90;;;;;;5080921;28;20433;-64
2021/06/07 01:22:23;;;;;;;6.00;5.40;;;12.00;99.90;;;;;;5081302;28;20383;-64
2021/06/07 01:24:51;;;;;;;5.60;5.20;;;12.00;99.90;;;;;;5084273;28;20254;-64
2021/06/07 01:27:19;;;;;;;6.20;5.60;;;12.00;99.90;;;;;;5080933;28;20421;-65
2021/06/07 01:29:47;;;;;;;5.97;5.47;;;12.00;99.90;;;;;;5078511;28;20180;-64
2021/06/07 01:32:16;;;;;;;6.07;5.67;;;12.00;99.90;;;;;;5083427;28;20252;-65
2021/06/07 01:34:44;;;;;;;6.83;5.37;;;12.00;99.90;;;;;;5081516;28;20180;-64
2021/06/07 01:37:12;;;;;;;6.93;5.80;;;12.00;99.90;;;;;;5083858;28;20187;-64
2021/06/07 01:39:41;;;;;;;5.90;5.30;;;12.00;99.90;;;;;;5079783;28;20196;-65
2021/06/07 01:42:09;;;;;;;6.43;5.80;;;12.00;99.90;;;;;;5073807;28;20216;-64
2021/06/07 01:44:37;;;;;;;7.23;5.30;;;12.00;99.90;;;;;;5076223;28;20208;-65
2021/06/07 01:47:05;;;;;;;6.00;5.40;;;11.90;99.90;;;;;;5081144;28;20375;-66
2021/06/07 01:49:33;;;;;;;8.33;5.90;;;11.90;99.90;;;;;;5080447;28;20475;-67
2021/06/07 01:52:01;;;;;;;8.57;5.67;;;11.90;99.90;;;;;;5076015;28;20188;-67
2021/06/07 01:54:29;;;;;;;5.63;5.23;;;11.90;99.90;;;;;;5084534;28;20219;-66
2021/06/07 01:56:58;;;;;;;6.43;5.73;;;11.80;99.90;;;;;;5082934;28;20226;-66
2021/06/07 01:59:26;;;;;;;6.50;5.80;;;11.80;99.90;;;;;;5069525;28;20188;-66
2021/06/07 02:01:54;;;;;;;7.70;6.17;;;11.70;99.90;;;;;;5078976;28;20203;-66
2021/06/07 02:04:23;;;;;;;8.13;5.93;;;11.70;99.90;;;;;;5082352;28;20199;-66
2021/06/07 02:06:50;;;;;;;6.93;5.90;;;11.70;99.90;;;;;;5081244;28;20445;-66
2021/06/07 02:09:18;;;;;;;6.23;5.70;;;11.60;99.90;;;;;;5081633;28;20180;-66
2021/06/07 02:11:46;;;;;;;6.33;5.67;;;11.60;99.90;;;;;;5077409;28;20413;-66
2021/06/07 02:14:15;;;;;;;6.37;5.77;;;11.60;99.90;;;;;;5081915;28;20187;-66
2021/06/07 02:16:44;;;;;;;6.90;5.70;;;11.50;99.90;;;;;;5079300;28;20424;-66
2021/06/07 02:19:11;;;;;;;6.00;5.47;;;11.40;99.90;;;;;;5070204;28;20317;-66
2021/06/07 02:21:40;;;;;;;7.33;5.50;;;11.30;99.90;;;;;;5081775;28;20204;-65
2021/06/07 02:24:10;;;;;;;6.30;5.70;;;11.30;99.90;;;;;;5082315;28;20245;-66
2021/06/07 02:26:39;;;;;;;6.97;6.27;;;11.30;99.90;;;;;;5080644;28;20251;-66
2021/06/07 02:29:10;;;;;;;6.93;6.03;;;11.20;99.90;;;;;;5080557;28;20413;-66
2021/06/07 02:31:41;;;;;;;6.80;6.10;;;11.20;99.90;;;;;;5082284;28;20187;-65
2021/06/07 02:34:11;;;;;;;10.37;6.53;;;11.20;99.90;;;;;;5083519;28;20202;-65
2021/06/07 02:36:41;;;;;;;9.00;6.13;;;11.20;99.90;;;;;;5063456;28;20195;-66
2021/06/07 02:39:13;;;;;;;7.70;5.80;;;11.20;99.90;;;;;;5069250;28;20272;-65
2021/06/07 02:41:43;;;;;;;6.50;5.90;;;11.20;99.90;;;;;;5076861;28;20410;-66
2021/06/07 02:44:11;;;;;;;6.70;6.03;;;11.20;99.90;;;;;;5077974;28;20231;-66
2021/06/07 02:46:40;;;;;;;6.73;6.00;;;11.10;99.90;;;;;;5080252;28;20230;-66
2021/06/07 02:49:09;;;;;;;8.47;6.27;;;11.10;99.90;;;;;;5063902;28;20184;-66
2021/06/07 02:51:37;;;;;;;6.40;5.80;;;11.00;99.90;;;;;;5060813;28;20176;-66
2021/06/07 02:54:06;;;;;;;8.83;6.00;;;11.00;99.90;;;;;;5067614;28;20216;-66
2021/06/07 02:56:34;;;;;;;7.10;6.10;;;11.00;99.90;;;;;;5076720;28;20238;-66
2021/06/07 02:59:03;;;;;;;7.90;6.37;;;11.00;99.90;;;;;;5075856;28;20437;-66
2021/06/07 03:01:31;;;;;;;8.00;6.17;;;11.00;99.90;;;;;;5078562;28;20433;-65
2021/06/07 03:04:01;;;;;;;6.93;6.10;;;10.90;99.90;;;;;;5079892;28;20476;-66
2021/06/07 03:06:29;;;;;;;8.90;6.33;;;10.90;99.90;;;;;;5080449;28;20180;-65
2021/06/07 03:08:57;;;;;;;7.37;6.67;;;10.90;99.90;;;;;;5088049;28;20188;-66
2021/06/07 03:11:25;;;;;;;8.13;6.20;;;10.90;99.90;;;;;;5077324;28;20185;-66
2021/06/07 03:13:52;;;;;;;8.67;5.90;;;10.80;99.90;;;;;;5075270;28;20188;-65
2021/06/07 03:16:21;;;;;;;8.40;6.77;;;10.80;99.90;;;;;;5081619;28;20494;-65
2021/06/07 03:18:49;;;;;;;6.23;5.73;;;10.80;99.90;;;;;;5081713;28;20182;-66
2021/06/07 03:21:18;;;;;;;8.43;6.57;;;10.70;99.90;;;;;;5077409;28;20180;-65
2021/06/07 03:23:51;;;;;;;7.87;6.30;;;10.70;99.90;;;;;;5079070;28;20211;-66
2021/06/07 03:26:19;;;;;;;6.97;6.37;;;10.70;99.90;;;;;;5081475;28;20222;-66
2021/06/07 03:28:46;;;;;;;7.03;6.33;;;10.70;99.90;;;;;;5082010;28;20184;-66
2021/06/07 03:31:14;;;;;;;6.80;6.20;;;10.70;99.90;;;;;;5080970;28;20358;-65
2021/06/07 03:33:43;;;;;;;6.23;5.53;;;10.60;99.90;;;;;;5081048;28;20180;-65
2021/06/07 03:36:11;;;;;;;10.07;6.23;;;10.60;99.90;;;;;;5082655;28;20184;-66
2021/06/07 03:38:40;;;;;;;6.70;6.10;;;10.60;99.90;;;;;;5080636;28;20188;-66
2021/06/07 03:41:10;;;;;;;6.97;6.37;;;10.70;99.90;;;;;;5076131;28;20188;-66
2021/06/07 03:43:38;;;;;;;8.17;6.33;;;10.70;99.90;;;;;;5051217;28;20212;-66
2021/06/07 03:46:07;;;;;;;7.60;6.67;;;10.60;99.90;;;;;;5075018;28;20259;-66
2021/06/07 03:48:35;;;;;;;7.27;6.50;;;10.60;99.90;;;;;;5073504;28;20333;-66
2021/06/07 03:51:03;;;;;;;6.83;6.23;;;10.60;99.90;;;;;;5077520;28;20325;-66
2021/06/07 03:53:31;;;;;;;12.33;6.60;;;10.60;99.90;;;;;;5078290;28;20379;-65
2021/06/07 03:56:01;;;;;;;7.47;6.17;;;10.60;99.90;;;;;;5081853;28;20242;-66
2021/06/07 03:58:29;;;;;;;8.50;7.70;;;10.60;99.90;;;;;;5079985;28;20188;-66
2021/06/07 04:00:57;;;;;;;12.47;8.13;;;10.60;99.90;;;;;;5076280;28;20204;-66
2021/06/07 04:03:25;;;;;;;13.17;10.43;;;10.60;99.90;;;;;;5062646;28;20208;-66
2021/06/07 04:05:53;;;;;;;9.93;8.93;;;10.60;99.90;;;;;;5081872;28;20184;-66
2021/06/07 04:08:21;;;;;;;10.43;8.60;;;10.60;99.90;;;;;;5077717;28;20200;-66
2021/06/07 04:10:49;;;;;;;9.20;8.10;;;10.60;99.90;;;;;;5076616;28;20193;-66
2021/06/07 04:13:19;;;;;;;9.50;8.50;;;10.60;99.90;;;;;;5096806;28;20177;-66
2021/06/07 04:15:47;;;;;;;9.13;7.97;;;10.60;99.90;;;;;;5079576;28;20425;-66
2021/06/07 04:18:15;;;;;;;8.30;7.50;;;10.70;99.90;;;;;;5080531;28;20206;-66
2021/06/07 04:20:43;;;;;;;8.20;7.40;;;10.70;99.90;;;;;;5079205;28;20190;-66
2021/06/07 04:23:11;;;;;;;8.00;7.23;;;10.70;99.90;;;;;;5080539;28;20510;-66
2021/06/07 04:25:39;;;;;;;8.00;7.17;;;10.80;99.90;;;;;;5073454;28;20184;-66
2021/06/07 04:28:07;;;;;;;7.80;6.77;;;10.80;99.90;;;;;;5074093;28;20176;-65
2021/06/07 04:30:36;;;;;;;11.97;8.97;;;10.90;99.90;;;;;;5072555;28;20180;-66
2021/06/07 04:33:09;;;;;;;10.93;7.87;;;10.90;99.90;;;;;;5084086;28;20360;-66
2021/06/07 04:35:37;;;;;;;10.20;7.87;;;11.00;99.90;;;;;;5073970;28;20191;-66
2021/06/07 04:38:05;;;;;;;8.33;7.20;;;11.10;99.90;;;;;;5080550;28;20255;-66
2021/06/07 04:40:35;;;;;;;8.60;7.33;;;11.20;99.90;;;;;;5081073;28;20187;-66
2021/06/07 04:43:07;;;;;;;8.50;7.70;;;11.30;99.90;;;;;;5080679;28;20216;-66
2021/06/07 04:45:37;;;;;;;9.17;7.13;;;11.40;99.90;;;;;;5074692;28;20207;-66
2021/06/07 04:48:06;;;;;;;8.73;6.40;;;11.50;99.90;;;;;;5075518;28;20459;-66
2021/06/07 04:50:34;;;;;;;8.80;6.47;;;11.70;99.90;;;;;;5068376;28;20187;-66
2021/06/07 04:53:04;;;;;;;8.20;6.93;;;11.80;99.90;;;;;;5077732;28;20200;-66
2021/06/07 04:55:36;;;;;;;9.93;6.47;;;11.90;99.90;;;;;;5070400;28;20224;-66
2021/06/07 04:58:06;;;;;;;8.53;6.80;;;12.00;99.90;;;;;;5084033;28;20206;-66
2021/06/07 05:00:36;;;;;;;7.73;6.10;;;12.10;99.90;;;;;;5073475;28;20322;-66
2021/06/07 05:03:05;;;;;;;6.80;6.20;;;12.20;99.90;;;;;;5049378;28;20203;-66
2021/06/07 05:05:34;;;;;;;8.23;6.53;;;12.30;99.90;;;;;;5079972;28;20255;-66
2021/06/07 05:08:03;;;;;;;7.03;6.30;;;12.40;99.90;;;;;;5081467;28;20189;-66
2021/06/07 05:10:32;;;;;;;6.80;6.10;;;12.60;99.90;;;;;;5078644;28;20208;-66
2021/06/07 05:13:00;;;;;;;6.23;5.60;;;12.70;99.90;;;;;;5057248;28;20223;-66
2021/06/07 05:15:28;;;;;;;6.77;6.13;;;12.80;99.90;;;;;;5077905;28;20243;-66
2021/06/07 05:17:58;;;;;;;7.50;6.60;;;12.90;99.90;;;;;;5079837;28;20180;-66
2021/06/07 05:20:27;;;;;;;7.13;6.43;;;13.00;99.90;;;;;;5070276;28;20317;-65
2021/06/07 05:22:56;;;;;;;6.37;5.67;;;13.10;99.90;;;;;;5080597;28;20310;-66
2021/06/07 05:25:26;;;;;;;8.27;6.40;;;13.30;99.90;;;;;;5080375;28;20417;-66
2021/06/07 05:27:56;;;;;;;9.33;6.23;;;13.40;99.90;;;;;;5080770;28;20230;-66
2021/06/07 05:30:26;;;;;;;10.33;6.00;;;13.60;99.90;;;;;;5083411;28;20344;-66
2021/06/07 05:32:54;;;;;;;8.33;6.20;;;13.70;99.90;;;;;;5083373;28;20252;-66
2021/06/07 05:35:28;;;;;;;13.07;5.63;;;13.80;99.90;;;;;;5081154;28;20188;-66
2021/06/07 05:37:57;;;;;;;9.27;6.30;;;13.90;99.90;;;;;;5085720;28;20188;-65
2021/06/07 05:40:26;;;;;;;8.53;6.33;;;14.10;99.90;;;;;;5075515;28;20211;-65
2021/06/07 05:42:54;;;;;;;10.20;6.50;;;14.20;99.90;;;;;;5082468;28;20176;-66
2021/06/07 05:45:23;;;;;;;6.60;6.00;;;14.40;99.90;;;;;;5082269;28;20188;-65
2021/06/07 05:47:53;;;;;;;8.87;6.73;;;14.50;99.90;;;;;;5082629;28;20512;-66
2021/06/07 05:50:24;;;;;;;10.93;6.17;;;14.70;99.90;;;;;;5077286;28;20176;-66
2021/06/07 05:52:52;;;;;;;8.47;6.70;;;14.70;99.90;;;;;;5061185;28;20191;-66
2021/06/07 05:55:22;;;;;;;9.33;6.20;;;14.80;99.90;;;;;;5078955;28;20216;-66
2021/06/07 05:57:52;;;;;;;7.20;6.50;;;15.00;99.90;;;;;;5069741;28;20544;-66
2021/06/07 06:00:22;;;;;;;12.87;7.20;;;15.10;99.90;;;;;;5079795;28;20363;-65
2021/06/07 06:02:50;;;;;;;7.20;6.40;;;15.20;99.90;;;;;;5077606;28;20184;-66
2021/06/07 06:05:18;;;;;;;11.50;7.00;;;15.30;99.90;;;;;;5083856;28;20269;-65
2021/06/07 06:07:48;;;;;;;11.77;6.40;;;15.30;99.90;;;;;;5078241;28;20199;-66
2021/06/07 06:10:17;;;;;;;11.00;6.83;;;15.40;99.90;;;;;;5077005;28;20181;-66
2021/06/07 06:12:46;;;;;;;7.37;5.80;;;15.50;99.90;;;;;;5078177;28;20218;-65
2021/06/07 06:15:19;;;;;;;6.47;5.80;;;15.50;99.90;;;;;;5081514;28;20189;-66
2021/06/07 06:17:48;;;;;;;8.83;6.50;;;15.60;99.90;;;;;;5082207;28;20336;-65
2021/06/07 06:20:16;;;;;;;7.97;5.80;;;15.80;99.90;;;;;;5084413;28;20186;-66
2021/06/07 06:22:46;;;;;;;7.63;5.97;;;15.90;99.90;;;;;;5084832;28;20192;-66
2021/06/07 06:25:17;;;;;;;8.63;6.03;;;16.00;99.90;;;;;;5067047;28;20330;-66
2021/06/07 06:27:45;;;;;;;9.70;5.80;;;16.10;99.90;;;;;;5061103;28;20188;-66
2021/06/07 06:30:16;;;;;;;6.40;5.80;;;16.30;99.90;;;;;;5074456;28;20234;-66
2021/06/07 06:32:46;;;;;;;5.77;5.30;;;16.40;99.90;;;;;;5080382;28;20195;-66
2021/06/07 06:35:15;;;;;;;6.43;5.90;;;16.50;99.90;;;;;;5077770;28;20207;-66
2021/06/07 06:37:44;;;;;;;6.27;5.60;;;16.50;99.90;;;;;;5081820;28;20192;-66
2021/06/07 06:40:16;;;;;;;14.20;6.23;;;16.50;99.90;;;;;;5075554;28;20330;-66
2021/06/07 06:42:45;;;;;;;7.03;5.83;;;16.60;99.90;;;;;;5065229;28;20192;-66
2021/06/07 06:45:15;;;;;;;8.80;6.00;;;16.70;99.90;;;;;;5078454;28;20570;-66
2021/06/07 06:47:43;;;;;;;7.03;6.33;;;16.60;99.90;;;;;;5062660;28;20359;-66
2021/06/07 06:50:13;;;;;;;10.43;5.90;;;16.80;99.90;;;;;;5062271;28;20180;-66
2021/06/07 06:52:41;;;;;;;7.40;6.53;;;16.90;99.90;;;;;;5082201;28;20428;-66
2021/06/07 06:55:10;;;;;;;10.23;6.50;;;16.90;99.90;;;;;;5080783;28;20267;-66
2021/06/07 06:57:38;;;;;;;7.13;5.37;;;17.00;99.90;;;;;;5058587;28;20368;-66
2021/06/07 07:00:09;;;;;;;6.73;6.03;;;17.10;99.90;;;;;;5079273;28;20188;-66
2021/06/07 07:02:37;;;;;;;8.23;6.07;;;17.30;99.90;;;;;;5077284;28;20192;-66
2021/06/07 07:05:07;;;;;;;9.00;5.97;;;17.40;99.90;;;;;;5076294;28;20208;-66
2021/06/07 07:07:35;;;;;;;7.70;6.60;;;17.40;99.90;;;;;;5060700;28;20368;-66
2021/06/07 07:10:04;;;;;;;7.07;5.70;;;17.60;99.90;;;;;;5079550;28;20424;-66
2021/06/07 07:12:32;;;;;;;6.67;6.07;;;17.70;99.90;;;;;;5081069;28;20249;-66
2021/06/07 07:15:00;;;;;;;8.63;6.50;;;17.90;99.90;;;;;;5084912;28;20184;-66
2021/06/07 07:17:29;;;;;;;7.13;5.90;;;17.90;99.90;;;;;;5069251;28;20205;-66
2021/06/07 07:20:01;;;;;;;6.30;5.70;;;18.10;99.90;;;;;;5062436;28;20180;-66
2021/06/07 07:22:28;;;;;;;7.70;6.50;;;18.40;99.90;;;;;;5078051;28;20371;-66
2021/06/07 07:24:56;;;;;;;8.63;6.20;;;18.40;99.90;;;;;;5080991;28;20362;-66
2021/06/07 07:27:30;;;;;;;6.33;5.73;;;18.30;99.90;;;;;;5074998;28;20326;-66
2021/06/07 07:29:59;;;;;;;9.40;6.17;;;18.40;99.90;;;;;;5077281;28;20212;-66
2021/06/07 07:32:28;;;;;;;6.10;5.53;;;18.50;99.90;;;;;;5078655;28;20331;-66
2021/06/07 07:34:58;;;;;;;6.90;6.30;;;18.60;99.90;;;;;;5080650;28;20182;-66
2021/06/07 07:37:25;;;;;;;9.80;5.50;;;18.80;99.90;;;;;;5091335;28;20204;-66
2021/06/07 07:39:53;;;;;;;6.30;5.73;;;19.00;99.90;;;;;;5082354;28;20429;-66
2021/06/07 07:42:21;;;;;;;6.33;5.83;;;19.10;99.90;;;;;;5082302;28;20184;-67
2021/06/07 07:44:49;;;;;;;5.63;5.10;;;19.30;99.90;;;;;;5059530;28;20215;-67
2021/06/07 07:47:18;;;;;;;5.87;5.37;;;19.30;99.90;;;;;;5079996;28;20222;-66
2021/06/07 07:49:46;;;;;;;6.57;5.80;;;19.30;99.90;;;;;;5078547;28;20188;-66
2021/06/07 07:52:16;;;;;;;7.60;5.60;;;19.30;99.90;;;;;;5077927;28;20223;-66
2021/06/07 07:54:44;;;;;;;6.33;5.83;;;19.50;99.90;;;;;;5081262;28;20415;-66
2021/06/07 07:57:13;;;;;;;7.03;5.53;;;19.70;99.90;;;;;;5079524;28;20261;-66
2021/06/07 07:59:40;;;;;;;5.60;5.20;;;19.80;99.90;;;;;;5078062;28;20188;-67
2021/06/07 08:02:09;;;;;;;7.33;5.50;;;19.80;99.90;;;;;;5077892;28;20242;-67
2021/06/07 08:04:38;;;;;;;5.33;4.97;;;19.80;99.90;;;;;;5080560;28;20424;-67
2021/06/07 08:07:06;;;;;;;5.23;4.73;;;20.00;99.90;;;;;;5075522;28;20179;-66
2021/06/07 08:09:39;;;;;;;5.00;4.60;;;20.40;99.90;;;;;;5075147;28;20187;-67
2021/06/07 08:12:07;;;;;;;6.13;4.53;;;20.60;99.90;;;;;;5062151;28;20191;-67
2021/06/07 08:14:35;;;;;;;4.80;4.50;;;20.50;99.90;;;;;;5080638;28;20442;-67
2021/06/07 08:17:04;;;;;;;4.83;4.40;;;20.70;99.90;;;;;;5080875;28;20192;-67
2021/06/07 08:19:31;;;;;;;4.50;4.20;;;20.90;99.90;;;;;;5033471;28;20429;-67
2021/06/07 08:21:59;;;;;;;4.33;4.00;;;21.10;99.90;;;;;;5059274;28;20208;-66
2021/06/07 08:24:27;;;;;;;6.83;4.20;;;21.50;99.90;;;;;;5079483;28;20232;-67
2021/06/07 08:26:56;;;;;;;4.50;3.97;;;21.60;99.90;;;;;;5064424;28;20183;-67
2021/06/07 08:29:24;;;;;;;6.57;4.73;;;21.70;99.90;;;;;;5080949;28;20701;-67
2021/06/07 08:31:52;;;;;;;4.73;4.30;;;21.60;99.90;;;;;;5081719;28;20180;-67
2021/06/07 08:34:20;;;;;;;3.97;3.77;;;21.70;99.90;;;;;;5073137;28;20186;-67
2021/06/07 08:36:48;;;;;;;4.17;3.57;;;21.80;99.90;;;;;;5091243;28;20189;-67
2021/06/07 08:39:16;;;;;;;3.20;3.00;;;21.90;99.90;;;;;;5061612;28;20183;-67
2021/06/07 08:41:44;;;;;;;4.07;3.80;;;22.10;99.90;;;;;;5073153;28;20220;-67
2021/06/07 08:44:25;;;;;;;4.00;3.70;;;22.30;99.90;;;;;;5058306;28;20221;-67
2021/06/07 08:46:53;;;;;;;3.83;3.53;;;22.10;99.90;;;;;;5081185;28;20434;-67
2021/06/07 08:49:22;;;;;;;3.37;3.10;;;22.30;99.90;;;;;;5071179;28;20184;-67
2021/06/07 08:51:50;;;;;;;3.37;3.13;;;22.60;99.90;;;;;;5079838;28;20186;-67
2021/06/07 08:54:18;;;;;;;4.80;3.60;;;22.70;99.90;;;;;;5077127;28;20226;-67
2021/06/07 08:56:46;;;;;;;3.53;3.30;;;23.30;99.90;;;;;;5078436;28;21219;-67
2021/06/07 08:59:15;;;;;;;2.93;2.83;;;23.70;99.90;;;;;;5076688;28;20440;-67
2021/06/07 09:01:45;;;;;;;4.03;2.93;;;23.80;99.90;;;;;;5061849;28;20200;-68
2021/06/07 09:04:15;;;;;;;3.57;2.80;;;23.80;99.90;;;;;;5064003;28;20502;-68
2021/06/07 09:06:45;;;;;;;4.00;3.37;;;23.70;99.90;;;;;;5085878;28;20431;-65
2021/06/07 09:09:15;;;;;;;3.10;2.90;;;23.90;99.90;;;;;;5084848;28;20246;-65
2021/06/07 09:11:45;;;;;;;3.90;3.23;;;24.30;99.90;;;;;;5085283;28;20197;-65
2021/06/07 09:14:21;;;;;;;4.32;2.97;;;24.20;99.90;;;;;;5085536;28;20449;-65
2021/06/07 09:16:51;;;;;;;3.60;3.30;;;24.40;99.90;;;;;;5084776;28;20187;-65
2021/06/07 09:19:21;;;;;;;2.70;2.50;;;24.20;99.90;;;;;;5082869;28;20185;-65
2021/06/07 09:21:49;;;;;;;2.45;2.28;;;24.20;99.90;;;;;;5085356;28;20246;-66
2021/06/07 09:24:18;;;;;;;2.35;2.25;;;24.60;99.90;;;;;;5077375;28;20423;-66
2021/06/07 09:26:47;;;;;;;2.03;1.92;;;24.80;99.90;;;;;;5077729;28;20204;-66
2021/06/07 09:29:34;;;;;;;2.35;2.25;;;24.70;99.90;;;;;;5066528;28;20231;-65
2021/06/07 09:32:05;;;;;;;2.00;1.90;;;24.50;99.90;;;;;;5067977;28;20196;-66
2021/06/07 09:34:35;;;;;;;2.50;2.30;;;24.70;99.90;;;;;;5085055;28;20195;-65
2021/06/07 09:37:07;;;;;;;2.40;1.90;;;24.70;99.90;;;;;;5086274;28;20382;-66
2021/06/07 09:39:36;;;;;;;3.08;2.38;;;24.90;99.90;;;;;;5084497;28;20476;-66
2021/06/07 09:42:08;;;;;;;6.00;2.72;;;25.10;99.90;;;;;;5081844;28;20194;-65
2021/06/07 09:44:44;;;;;;;2.30;2.20;;;25.30;99.90;;;;;;5085213;28;20190;-66
2021/06/07 09:47:19;;;;;;;3.25;2.17;;;25.40;99.90;;;;;;5082812;28;20193;-66
2021/06/07 09:49:51;;;;;;;2.38;1.88;;;25.30;99.90;;;;;;5080234;28;20531;-65
2021/06/07 09:52:22;;;;;;;1.77;1.73;;;25.30;99.90;;;;;;5076876;28;20188;-65
2021/06/07 09:55:02;;;;;;;2.00;1.80;;;25.10;99.90;;;;;;5074377;28;20221;-65
2021/06/07 09:57:49;;;;;;;2.08;1.90;;;25.00;99.90;;;;;;5082155;28;20200;-66
2021/06/07 10:00:35;;;;;;;2.15;1.70;;;25.00;99.90;;;;;;5080984;28;20226;-65
2021/06/07 10:03:20;;;;;;;1.98;1.88;;;25.00;99.90;;;;;;5079193;28;20402;-65
2021/06/07 10:05:50;;;;;;;1.70;1.60;;;25.20;99.90;;;;;;5084813;28;20227;-66
2021/06/07 10:08:19;;;;;;;2.03;1.90;;;25.50;99.90;;;;;;5082187;28;20441;-66
2021/06/07 10:10:47;;;;;;;2.00;1.80;;;26.30;99.90;;;;;;5080987;28;20264;-65
2021/06/07 10:13:15;;;;;;;3.05;1.90;;;26.40;99.90;;;;;;5083774;28;20429;-65
2021/06/07 10:15:45;;;;;;;1.90;1.85;;;26.40;99.90;;;;;;5063251;28;20186;-65
2021/06/07 10:18:16;;;;;;;1.42;1.42;;;26.90;99.90;;;;;;5064437;28;20195;-66
2021/06/07 10:20:47;;;;;;;2.22;2.13;;;26.50;99.90;;;;;;5081522;28;20250;-65
2021/06/07 10:23:18;;;;;;;2.05;1.98;;;26.60;99.90;;;;;;5081639;28;20184;-65
2021/06/07 10:25:46;;;;;;;2.30;2.15;;;26.50;98.80;;;;;;5082831;28;20207;-65
2021/06/07 10:28:14;;;;;;;2.65;2.53;;;26.60;99.90;;;;;;5079673;28;20237;-65
2021/06/07 10:30:44;;;;;;;4.38;2.10;;;26.50;97.80;;;;;;5068908;28;20207;-65
2021/06/07 10:33:30;;;;;;;2.20;2.00;;;26.50;99.60;;;;;;5078636;28;20371;-65
2021/06/07 10:36:31;;;;;;;3.22;2.08;;;26.20;98.70;;;;;;5084441;28;20201;-67
2021/06/07 10:39:22;;;;;;;2.20;2.05;;;26.40;98.00;;;;;;5078970;28;20209;-65
2021/06/07 10:42:09;;;;;;;2.03;1.92;;;26.40;97.60;;;;;;5079594;28;20184;-65
2021/06/07 10:44:39;;;;;;;2.25;2.05;;;26.60;99.10;;;;;;5075403;28;20384;-65
2021/06/07 10:47:09;;;;;;;2.25;2.10;;;26.60;97.60;;;;;;5077013;28;20181;-65
2021/06/07 10:49:42;;;;;;;2.65;2.50;;;26.70;97.70;;;;;;5078700;28;20186;-65
2021/06/07 10:52:14;;;;;;;2.47;2.25;;;26.80;99.90;;;;;;5082699;28;20197;-65
2021/06/07 10:54:43;;;;;;;3.38;2.45;;;27.00;99.60;;;;;;5081645;28;20234;-65
2021/06/07 10:57:40;;;;;;;2.00;1.90;;;27.40;96.80;;;;;;5083240;28;20257;-65
2021/06/07 11:00:13;;;;;;;3.20;2.20;;;27.50;96.00;;;;;;5068164;28;20201;-64
2021/06/07 11:02:44;;;;;;;3.50;2.47;;;27.20;96.90;;;;;;5083926;28;20210;-65
2021/06/07 11:05:15;;;;;;;2.50;2.40;;;26.80;96.00;;;;;;5078722;28;20224;-65
2021/06/07 11:07:46;;;;;;;2.03;1.80;;;26.80;98.40;;;;;;5081074;28;20194;-65
2021/06/07 11:10:20;;;;;;;2.40;2.20;;;26.90;98.60;;;;;;5080749;28;20198;-65
2021/06/07 11:12:49;;;;;;;2.20;2.10;;;27.10;96.00;;;;;;5082301;28;20203;-65
2021/06/07 11:15:20;;;;;;;2.20;2.10;;;27.30;96.30;;;;;;5082071;28;20258;-65
2021/06/07 11:17:49;;;;;;;2.05;1.92;;;27.40;96.90;;;;;;5081795;28;20457;-65
2021/06/07 11:20:32;;;;;;;3.30;2.90;;;27.50;95.70;;;;;;5081237;28;20234;-64
2021/06/07 11:23:10;;;;;;;1.90;1.80;;;27.30;96.70;;;;;;5078384;28;20193;-64
2021/06/07 11:25:49;;;;;;;2.50;2.38;;;27.00;96.80;;;;;;5078798;28;20231;-64
2021/06/07 11:28:41;;;;;;;2.67;2.42;;;27.10;96.30;;;;;;5061371;28;20189;-64
2021/06/07 11:31:50;;;;;;;6.13;2.95;;;27.10;98.20;;;;;;5075203;28;20191;-64
2021/06/07 11:34:39;;;;;;;2.42;2.10;;;27.40;95.40;;;;;;5078178;28;20322;-66
2021/06/07 11:37:11;;;;;;;2.92;2.10;;;27.20;93.00;;;;;;5081428;28;20192;-66
2021/06/07 11:39:52;;;;;;;2.87;2.03;;;26.90;97.30;;;;;;5083545;28;20370;-64
2021/06/07 11:42:24;;;;;;;1.83;1.77;;;26.70;95.20;;;;;;5080625;28;20250;-66
2021/06/07 11:45:05;;;;;;;2.20;2.00;;;26.60;97.80;;;;;;5082720;28;20258;-66
2021/06/07 11:47:51;;;;;;;3.13;2.30;;;26.50;97.10;;;;;;5078830;28;20230;-66
2021/06/07 11:50:29;;;;;;;2.73;2.10;;;26.60;97.80;;;;;;5080639;28;20184;-64
2021/06/07 11:53:14;;;;;;;2.60;2.40;;;26.50;95.80;;;;;;5079499;28;20255;-65
2021/06/07 11:55:44;;;;;;;5.23;2.67;;;26.40;95.50;;;;;;5074897;28;20236;-65
2021/06/07 11:58:18;;;;;;;2.90;2.70;;;26.20;94.30;;;;;;5091474;28;20403;-65
2021/06/07 12:00:48;;;;;;;2.80;2.50;;;26.00;96.10;;;;;;5087603;28;20181;-66
2021/06/07 12:03:19;;;;;;;2.40;2.20;;;26.00;95.50;;;;;;5079164;28;20229;-65
2021/06/07 12:05:48;;;;;;;2.87;2.60;;;25.90;96.00;;;;;;5059501;28;20214;-65
2021/06/07 12:08:17;;;;;;;2.80;2.53;;;25.70;96.70;;;;;;5070952;28;20187;-66
2021/06/07 12:10:52;;;;;;;2.90;2.70;;;25.90;98.40;;;;;;5079791;28;20204;-65
2021/06/07 12:13:27;;;;;;;3.60;2.90;;;25.80;98.30;;;;;;5074962;28;20189;-66
2021/06/07 12:15:59;;;;;;;3.07;2.30;;;25.90;97.70;;;;;;5080077;28;20197;-65
2021/06/07 12:18:39;;;;;;;2.10;1.90;;;25.80;97.10;;;;;;5073997;28;20413;-65
2021/06/07 12:21:10;;;;;;;2.47;2.27;;;25.90;97.90;;;;;;5077226;28;20187;-65
2021/06/07 12:23:42;;;;;;;2.60;2.40;;;25.70;95.90;;;;;;5076604;28;20198;-66
2021/06/07 12:29:20;;;;;;;3.27;2.70;;;25.30;94.90;;;;;;5082253;28;20193;-65
2021/06/07 12:32:10;;;;;;;3.10;2.80;;;25.10;97.10;;;;;;5079576;28;20184;-65
2021/06/07 12:35:12;;;;;;;2.70;2.50;;;25.00;94.70;;;;;;5076709;28;20178;-65
2021/06/07 12:37:45;;;;;;;2.63;2.50;;;25.10;98.40;;;;;;5078588;28;20180;-65
2021/06/07 12:40:22;;;;;;;2.73;2.37;;;25.20;94.60;;;;;;5077620;28;20190;-65
2021/06/07 12:42:54;;;;;;;2.50;2.40;;;25.00;97.20;;;;;;5092555;28;20208;-65
2021/06/07 12:45:24;;;;;;;3.17;2.50;;;24.90;96.20;;;;;;5082017;28;20231;-66
2021/06/07 12:47:52;;;;;;;4.03;3.23;;;24.90;95.20;;;;;;5083111;28;20182;-65
2021/06/07 12:50:23;;;;;;;2.90;2.80;;;25.10;97.80;;;;;;5086080;28;20184;-65
2021/06/07 12:52:56;;;;;;;3.30;3.00;;;25.20;97.90;;;;;;5081159;28;20231;-65
2021/06/07 12:55:25;;;;;;;3.20;3.00;;;25.40;96.80;;;;;;5085856;28;20411;-65
2021/06/07 12:57:55;;;;;;;3.00;2.90;;;25.60;98.80;;;;;;5076928;28;20227;-65
2021/06/07 13:00:32;;;;;;;3.40;3.20;;;25.80;98.50;;;;;;5086494;28;20193;-65
2021/06/07 13:03:04;;;;;;;3.33;3.07;;;25.80;96.00;;;;;;5078527;28;20255;-65
2021/06/07 13:05:36;;;;;;;4.33;2.87;;;25.70;96.00;;;;;;5068494;28;20182;-65
2021/06/07 13:08:09;;;;;;;2.63;2.53;;;25.50;95.50;;;;;;5083158;28;20185;-65